Time;durP1;ratioP1;P1;durP2;ratioP2;P2;SDS_P1;SDS_P2;PMS_P1;PMS_P2;Temp;Humidity;BMP_temperature;BMP_pressure;BME280_temperature;BME280_humidity;BME280_pressure;Samples;Min_cycle;Max_cycle;Signal;HPM_P1;HPM_P2
2022/01/03 00:02:17;;;;;;;24.25;5.53;;;;;;;;;;5050964;28;20025;-57
2022/01/03 00:04:42;;;;;;;14.53;6.17;;;;;;;;;;5048993;28;20025;-57
2022/01/03 00:07:10;;;;;;;20.90;6.57;;;;;;;;;;5053181;28;21872;-57
2022/01/03 00:09:35;;;;;;;24.92;5.47;;;;;;;;;;5051735;28;20035;-57
2022/01/03 00:12:01;;;;;;;19.25;4.90;;;;;;;;;;5048673;28;20024;-57
2022/01/03 00:14:26;;;;;;;28.90;6.50;;;;;;;;;;5049239;28;20174;-57
2022/01/03 00:16:52;;;;;;;11.82;5.32;;;;;;;;;;5050448;28;20091;-57
2022/01/03 00:19:17;;;;;;;18.48;3.65;;;;;;;;;;5048880;28;20126;-57
2022/01/03 00:21:44;;;;;;;39.60;5.73;;;;;;;;;;5048628;28;20020;-57
2022/01/03 00:24:10;;;;;;;16.73;4.97;;;;;;;;;;5049194;28;20459;-58
2022/01/03 00:26:36;;;;;;;23.77;7.18;;;;;;;;;;5047464;28;20352;-56
2022/01/03 00:29:06;;;;;;;20.33;5.40;;;;;;;;;;5049254;28;20053;-57
2022/01/03 00:31:35;;;;;;;24.27;6.75;;;;;;;;;;5050239;28;20108;-57
2022/01/03 00:34:01;;;;;;;19.77;4.82;;;;;;;;;;5050354;28;20039;-56
2022/01/03 00:36:31;;;;;;;20.67;6.78;;;;;;;;;;5057107;28;20024;-57
2022/01/03 00:38:56;;;;;;;21.98;4.82;;;;;;;;;;5044228;28;20025;-57
2022/01/03 00:41:22;;;;;;;20.27;3.92;;;;;;;;;;5050020;28;20040;-56
2022/01/03 00:43:47;;;;;;;19.67;7.22;;;;;;;;;;5050081;28;20096;-56
2022/01/03 00:46:13;;;;;;;53.30;8.75;;;;;;;;;;5050414;28;20365;-56
2022/01/03 00:48:38;;;;;;;23.73;8.98;;;;;;;;;;5050796;28;20502;-57
2022/01/03 00:51:03;;;;;;;15.35;6.13;;;;;;;;;;5048772;28;20115;-57
2022/01/03 00:53:29;;;;;;;15.83;4.50;;;;;;;;;;5047484;28;20253;-57
2022/01/03 00:56:01;;;;;;;19.70;6.68;;;;;;;;;;5046022;28;20456;-56
2022/01/03 00:58:29;;;;;;;17.58;4.38;;;;;;;;;;5050349;28;20056;-57
2022/01/03 01:00:54;;;;;;;18.10;5.75;;;;;;;;;;5043122;28;20431;-57
2022/01/03 01:03:20;;;;;;;19.83;5.57;;;;;;;;;;5050249;28;20051;-57
2022/01/03 01:05:49;;;;;;;18.60;5.65;;;;;;;;;;5050759;28;20033;-56
2022/01/03 01:08:17;;;;;;;19.92;5.63;;;;;;;;;;5050516;28;20017;-58
2022/01/03 01:10:44;;;;;;;21.65;4.80;;;;;;;;;;5048425;28;20037;-57
2022/01/03 01:13:10;;;;;;;20.60;6.43;;;;;;;;;;5052524;28;20143;-57
2022/01/03 01:15:36;;;;;;;17.98;4.78;;;;;;;;;;5047112;28;20125;-58
2022/01/03 01:18:04;;;;;;;17.65;6.97;;;;;;;;;;5050023;28;20079;-58
2022/01/03 01:20:30;;;;;;;21.73;7.40;;;;;;;;;;5051633;28;20141;-57
2022/01/03 01:22:55;;;;;;;15.90;3.83;;;;;;;;;;5047417;28;20099;-57
2022/01/03 01:27:47;;;;;;;23.33;5.28;;;;;;;;;;5047155;28;20033;-57
2022/01/03 01:30:12;;;;;;;20.75;5.20;;;;;;;;;;5048494;28;20492;-57
2022/01/03 01:32:41;;;;;;;19.92;5.40;;;;;;;;;;5049594;28;20024;-57
2022/01/03 01:35:06;;;;;;;22.75;6.40;;;;;;;;;;5046650;28;20109;-58
2022/01/03 01:37:31;;;;;;;16.95;6.57;;;;;;;;;;5049233;28;20101;-58
2022/01/03 01:39:57;;;;;;;27.42;6.22;;;;;;;;;;5045844;28;20037;-58
2022/01/03 01:42:23;;;;;;;21.10;6.63;;;;;;;;;;5048148;28;20063;-57
2022/01/03 01:44:50;;;;;;;27.88;6.00;;;;;;;;;;5048250;28;20029;-59
2022/01/03 01:47:16;;;;;;;15.02;5.25;;;;;;;;;;5049595;28;20005;-58
2022/01/03 01:49:45;;;;;;;22.05;6.97;;;;;;;;;;5048280;28;20032;-58
2022/01/03 01:52:14;;;;;;;24.27;6.35;;;;;;;;;;5052441;28;20021;-58
2022/01/03 01:54:41;;;;;;;25.90;6.70;;;;;;;;;;5049829;28;20048;-58
2022/01/03 01:57:06;;;;;;;30.90;7.85;;;;;;;;;;5052425;28;20017;-58
2022/01/03 01:59:44;;;;;;;22.10;6.60;;;;;;;;;;5049646;28;20099;-59
2022/01/03 02:02:11;;;;;;;24.48;5.40;;;;;;;;;;5050507;28;20021;-59
2022/01/03 02:04:39;;;;;;;31.95;7.53;;;;;;;;;;5045674;28;20392;-58
2022/01/03 02:07:23;;;;;;;30.98;6.95;;;;;;;;;;5052955;28;20055;-58
2022/01/03 02:09:57;;;;;;;31.85;7.20;;;;;;;;;;5050586;28;20500;-58
2022/01/03 02:12:25;;;;;;;40.60;9.43;;;;;;;;;;5049452;28;20075;-58
2022/01/03 02:14:53;;;;;;;29.38;9.45;;;;;;;;;;5048607;28;20119;-58
2022/01/03 02:17:18;;;;;;;30.00;9.47;;;;;;;;;;5061529;28;20504;-57
2022/01/03 02:19:59;;;;;;;29.83;5.93;;;;;;;;;;5058910;28;20051;-57
2022/01/03 02:22:24;;;;;;;35.03;9.88;;;;;;;;;;5058416;28;20398;-58
2022/01/03 02:24:49;;;;;;;33.73;9.00;;;;;;;;;;5067692;28;20037;-58
2022/01/03 02:27:15;;;;;;;42.67;10.20;;;;;;;;;;5052816;28;20025;-58
2022/01/03 02:29:42;;;;;;;30.63;8.88;;;;;;;;;;5052230;28;20037;-58
2022/01/03 02:32:07;;;;;;;19.67;7.07;;;;;;;;;;5071789;28;20461;-58
2022/01/03 02:34:32;;;;;;;35.13;6.68;;;;;;;;;;5070943;28;20060;-58
2022/01/03 02:36:58;;;;;;;34.23;11.77;;;;;;;;;;5072929;28;20020;-58
2022/01/03 02:39:23;;;;;;;39.28;8.75;;;;;;;;;;5069435;28;20454;-58
2022/01/03 02:41:48;;;;;;;25.73;6.82;;;;;;;;;;5060100;28;20380;-58
2022/01/03 02:44:17;;;;;;;23.55;5.95;;;;;;;;;;5069739;28;20411;-58
2022/01/03 02:46:42;;;;;;;;;;;;;;;;;;5073122;28;20352;-58
2022/01/03 02:49:07;;;;;;;35.72;10.00;;;;;;;;;;5070743;28;20291;-57
2022/01/03 02:51:32;;;;;;;34.13;7.63;;;;;;;;;;5072411;28;20054;-58
2022/01/03 02:53:57;;;;;;;23.47;6.70;;;;;;;;;;5051454;28;20021;-57
2022/01/03 02:56:23;;;;;;;19.98;6.25;;;;;;;;;;5067838;28;20028;-56
2022/01/03 02:58:48;;;;;;;49.25;12.07;;;;;;;;;;5059197;28;20027;-56
2022/01/03 03:01:13;;;;;;;24.95;6.65;;;;;;;;;;5052687;28;20357;-57
2022/01/03 03:03:39;;;;;;;27.93;7.57;;;;;;;;;;5054840;28;20492;-57
2022/01/03 03:06:04;;;;;;;32.88;8.57;;;;;;;;;;5070709;28;20028;-57
2022/01/03 03:08:29;;;;;;;26.60;7.10;;;;;;;;;;5072186;28;20067;-57
2022/01/03 03:10:54;;;;;;;22.47;6.57;;;;;;;;;;5066295;28;20044;-57
2022/01/03 03:13:20;;;;;;;23.80;7.35;;;;;;;;;;5052205;28;20439;-57
2022/01/03 03:15:45;;;;;;;25.25;7.22;;;;;;;;;;5050599;28;20041;-57
2022/01/03 03:18:10;;;;;;;27.55;8.25;;;;;;;;;;5052914;28;20135;-57
2022/01/03 03:20:36;;;;;;;25.48;5.88;;;;;;;;;;5070290;28;20043;-57
2022/01/03 03:23:01;;;;;;;22.52;9.07;;;;;;;;;;5070411;28;20103;-57
2022/01/03 03:25:31;;;;;;;25.08;6.72;;;;;;;;;;5053072;28;20065;-57
2022/01/03 03:27:58;;;;;;;30.63;8.55;;;;;;;;;;5053181;28;20021;-57
2022/01/03 03:30:26;;;;;;;25.08;8.13;;;;;;;;;;5050455;28;20037;-57
2022/01/03 03:32:53;;;;;;;30.65;8.70;;;;;;;;;;5051330;28;20027;-59
2022/01/03 03:35:19;;;;;;;37.17;8.32;;;;;;;;;;5050507;28;20035;-59
2022/01/03 03:37:44;;;;;;;28.13;6.57;;;;;;;;;;5051819;28;20100;-58
2022/01/03 03:40:09;;;;;;;45.07;11.27;;;;;;;;;;5049919;28;20055;-58
2022/01/03 03:42:35;;;;;;;31.63;9.27;;;;;;;;;;5068706;28;20031;-59
2022/01/03 03:45:00;;;;;;;26.58;7.47;;;;;;;;;;5066649;28;20028;-58
2022/01/03 03:47:25;;;;;;;27.80;7.55;;;;;;;;;;5051485;28;20025;-58
2022/01/03 03:49:50;;;;;;;31.33;8.67;;;;;;;;;;5051100;28;20028;-58
2022/01/03 03:52:16;;;;;;;22.93;8.10;;;;;;;;;;5051899;28;20435;-56
2022/01/03 03:54:41;;;;;;;37.60;10.43;;;;;;;;;;5064127;28;20453;-57
2022/01/03 03:57:08;;;;;;;43.83;8.00;;;;;;;;;;5055565;28;20036;-57
2022/01/03 03:59:33;;;;;;;36.55;10.48;;;;;;;;;;5049777;28;20041;-57
2022/01/03 04:01:58;;;;;;;35.08;8.25;;;;;;;;;;5051199;28;20066;-57
2022/01/03 04:04:24;;;;;;;27.02;7.03;;;;;;;;;;5050205;28;20037;-57
2022/01/03 04:06:49;;;;;;;20.27;8.40;;;;;;;;;;5051280;28;20102;-57
2022/01/03 04:09:15;;;;;;;51.60;9.82;;;;;;;;;;5053631;28;20112;-58
2022/01/03 04:11:40;;;;;;;33.72;6.72;;;;;;;;;;5059607;28;20028;-58
2022/01/03 04:14:06;;;;;;;40.00;9.45;;;;;;;;;;5070004;28;20041;-58
2022/01/03 04:16:31;;;;;;;36.40;10.30;;;;;;;;;;5070601;28;20099;-59
2022/01/03 04:18:56;;;;;;;31.77;9.10;;;;;;;;;;5061978;28;20056;-57
2022/01/03 04:21:21;;;;;;;35.35;9.80;;;;;;;;;;5051369;28;20016;-57
2022/01/03 04:23:46;;;;;;;31.77;7.23;;;;;;;;;;5056227;28;20031;-57
2022/01/03 04:26:12;;;;;;;36.27;8.67;;;;;;;;;;5070779;28;20435;-57
2022/01/03 04:28:38;;;;;;;22.90;6.20;;;;;;;;;;5070938;28;20020;-57
2022/01/03 04:31:03;;;;;;;19.05;6.18;;;;;;;;;;5055008;28;20045;-56
2022/01/03 04:33:28;;;;;;;37.67;12.13;;;;;;;;;;5053922;28;20031;-57
2022/01/03 04:35:53;;;;;;;33.08;9.23;;;;;;;;;;5069471;28;20496;-56
2022/01/03 04:38:18;;;;;;;30.90;7.27;;;;;;;;;;5051670;28;20115;-58
2022/01/03 04:40:44;;;;;;;26.47;9.27;;;;;;;;;;5060935;28;20408;-58
2022/01/03 04:43:09;;;;;;;23.00;6.43;;;;;;;;;;5071198;28;20980;-58
2022/01/03 04:45:34;;;;;;;25.17;5.72;;;;;;;;;;5050617;28;20572;-59
2022/01/03 04:47:59;;;;;;;22.25;6.07;;;;;;;;;;5054880;28;20055;-56
2022/01/03 04:50:24;;;;;;;23.40;7.60;;;;;;;;;;5060212;28;20032;-57
2022/01/03 04:52:50;;;;;;;35.72;7.32;;;;;;;;;;5051876;28;20090;-55
2022/01/03 04:55:15;;;;;;;28.73;9.10;;;;;;;;;;5049196;28;20037;-56
2022/01/03 04:57:40;;;;;;;26.30;8.60;;;;;;;;;;5068354;28;20434;-56
2022/01/03 05:00:06;;;;;;;31.48;8.57;;;;;;;;;;5069367;28;20032;-56
2022/01/03 05:02:32;;;;;;;24.77;8.23;;;;;;;;;;5060120;28;20112;-56
2022/01/03 05:04:57;;;;;;;37.25;9.07;;;;;;;;;;5049300;28;20116;-56
2022/01/03 05:07:22;;;;;;;28.13;6.20;;;;;;;;;;5050892;28;20024;-56
2022/01/03 05:09:47;;;;;;;29.93;6.67;;;;;;;;;;5048774;28;20481;-56
2022/01/03 05:12:12;;;;;;;20.60;7.93;;;;;;;;;;5050584;28;20442;-57
2022/01/03 05:14:38;;;;;;;31.63;12.13;;;;;;;;;;5048877;28;20055;-57
2022/01/03 05:17:03;;;;;;;24.35;6.65;;;;;;;;;;5064897;28;20032;-57
2022/01/03 05:19:28;;;;;;;38.78;9.82;;;;;;;;;;5051700;28;20463;-58
2022/01/03 05:21:54;;;;;;;60.87;12.73;;;;;;;;;;5058262;28;20032;-55
2022/01/03 05:24:19;;;;;;;30.25;9.82;;;;;;;;;;5064299;28;21055;-55
2022/01/03 05:26:44;;;;;;;44.00;9.97;;;;;;;;;;5073894;28;20016;-55
2022/01/03 05:29:09;;;;;;;27.00;11.20;;;;;;;;;;5072910;28;20884;-55
2022/01/03 05:31:34;;;;;;;30.88;9.05;;;;;;;;;;5061979;28;21004;-54
2022/01/03 05:34:03;;;;;;;48.15;10.90;;;;;;;;;;5056335;28;20681;-55
2022/01/03 05:36:28;;;;;;;27.25;7.20;;;;;;;;;;5052686;28;20481;-55
2022/01/03 05:38:53;;;;;;;25.20;8.63;;;;;;;;;;5050607;28;20051;-54
2022/01/03 05:41:18;;;;;;;29.43;9.33;;;;;;;;;;5053121;28;20551;-55
2022/01/03 05:43:44;;;;;;;33.30;9.00;;;;;;;;;;5051432;28;20552;-54
2022/01/03 05:46:09;;;;;;;34.88;9.15;;;;;;;;;;5052955;28;20027;-54
2022/01/03 05:48:35;;;;;;;33.67;9.55;;;;;;;;;;5053409;28;20431;-54
2022/01/03 05:51:00;;;;;;;33.88;7.57;;;;;;;;;;5052345;28;20032;-54
2022/01/03 05:53:25;;;;;;;35.37;9.40;;;;;;;;;;5053136;28;20021;-55
2022/01/03 05:55:50;;;;;;;29.08;7.60;;;;;;;;;;5051848;28;20373;-54
2022/01/03 05:58:15;;;;;;;27.40;7.93;;;;;;;;;;5053672;28;20396;-54
2022/01/03 06:00:41;;;;;;;36.72;8.70;;;;;;;;;;5051658;28;20502;-54
2022/01/03 06:03:06;;;;;;;36.20;13.77;;;;;;;;;;5053963;28;20021;-54
2022/01/03 06:07:59;;;;;;;37.57;11.17;;;;;;;;;;5053489;28;20028;-54
2022/01/03 06:10:24;;;;;;;26.97;10.40;;;;;;;;;;5052008;28;20476;-55
2022/01/03 06:12:50;;;;;;;26.20;8.63;;;;;;;;;;5053468;28;20056;-54
2022/01/03 06:15:15;;;;;;;46.65;9.73;;;;;;;;;;5051631;28;20056;-55
2022/01/03 06:17:41;;;;;;;41.50;10.20;;;;;;;;;;5052957;28;20052;-54
2022/01/03 06:20:07;;;;;;;46.17;9.65;;;;;;;;;;5051590;28;20053;-55
2022/01/03 06:22:32;;;;;;;39.45;11.93;;;;;;;;;;5052377;28;20051;-55
2022/01/03 06:24:57;;;;;;;31.42;8.32;;;;;;;;;;5051710;28;20496;-54
2022/01/03 06:27:22;;;;;;;38.95;9.80;;;;;;;;;;5053167;28;20029;-55
2022/01/03 06:29:48;;;;;;;31.55;12.82;;;;;;;;;;5051142;28;20040;-55
2022/01/03 06:32:13;;;;;;;32.13;10.57;;;;;;;;;;5052506;28;20537;-55
2022/01/03 06:34:38;;;;;;;34.67;9.35;;;;;;;;;;5051433;28;20857;-54
2022/01/03 06:37:04;;;;;;;32.25;7.65;;;;;;;;;;5052497;28;20422;-54
2022/01/03 06:39:30;;;;;;;48.57;10.33;;;;;;;;;;5051458;28;20048;-55
2022/01/03 06:41:55;;;;;;;42.60;9.38;;;;;;;;;;5052803;28;20020;-54
2022/01/03 06:44:20;;;;;;;35.10;10.37;;;;;;;;;;5050282;28;20392;-55
2022/01/03 06:46:47;;;;;;;26.73;7.60;;;;;;;;;;5052180;28;20057;-54
2022/01/03 06:49:12;;;;;;;31.73;7.45;;;;;;;;;;5051198;28;20451;-55
2022/01/03 06:51:38;;;;;;;38.33;11.55;;;;;;;;;;5051755;28;20017;-54
2022/01/03 06:54:04;;;;;;;29.65;7.90;;;;;;;;;;5050916;28;20048;-55
2022/01/03 06:56:29;;;;;;;35.65;7.88;;;;;;;;;;5051924;28;20361;-54
2022/01/03 06:58:55;;;;;;;27.75;10.73;;;;;;;;;;5050643;28;20027;-54
2022/01/03 07:01:20;;;;;;;39.92;10.57;;;;;;;;;;5051960;28;20380;-55
2022/01/03 07:03:45;;;;;;;29.40;9.88;;;;;;;;;;5050834;28;20053;-54
2022/01/03 07:06:10;;;;;;;35.08;12.00;;;;;;;;;;5052111;28;20025;-54
2022/01/03 07:08:35;;;;;;;24.23;8.07;;;;;;;;;;5052303;28;20013;-55
2022/01/03 07:11:00;;;;;;;26.30;6.68;;;;;;;;;;5051005;28;20110;-54
2022/01/03 07:13:28;;;;;;;36.47;10.07;;;;;;;;;;5052248;28;20032;-55
2022/01/03 07:18:56;;;;;;;32.22;11.13;;;;;;;;;;5051986;28;20060;-54
2022/01/03 07:21:21;;;;;;;28.90;5.70;;;;;;;;;;5050503;28;20049;-54
2022/01/03 07:23:46;;;;;;;35.75;9.52;;;;;;;;;;5050565;28;20052;-54
2022/01/03 07:26:12;;;;;;;27.95;5.57;;;;;;;;;;5052098;28;20021;-54
2022/01/03 07:28:37;;;;;;;49.08;9.35;;;;;;;;;;5051025;28;20140;-55
2022/01/03 07:31:02;;;;;;;29.48;9.15;;;;;;;;;;5050501;28;20044;-54
2022/01/03 07:33:28;;;;;;;33.28;8.88;;;;;;;;;;5052067;28;20024;-54
2022/01/03 07:35:53;;;;;;;28.83;8.73;;;;;;;;;;5049918;28;20120;-54
2022/01/03 07:38:18;;;;;;;37.55;8.68;;;;;;;;;;5051545;28;20415;-54
2022/01/03 07:40:43;;;;;;;32.92;9.45;;;;;;;;;;5049905;28;20033;-55
2022/01/03 07:43:08;;;;;;;29.60;11.23;;;;;;;;;;5051163;28;20079;-54
2022/01/03 07:45:33;;;;;;;37.73;7.97;;;;;;;;;;5049354;28;20108;-54
2022/01/03 07:47:59;;;;;;;26.85;10.55;;;;;;;;;;5051544;28;20411;-54
2022/01/03 07:50:24;;;;;;;35.37;9.13;;;;;;;;;;5050382;28;20025;-54
2022/01/03 07:52:49;;;;;;;46.83;11.93;;;;;;;;;;5050942;28;20419;-55
2022/01/03 07:55:15;;;;;;;33.08;7.68;;;;;;;;;;5050045;28;20036;-54
2022/01/03 07:57:41;;;;;;;23.75;7.50;;;;;;;;;;5051409;28;20463;-54
2022/01/03 08:00:07;;;;;;;49.75;16.58;;;;;;;;;;5049959;28;20124;-54
2022/01/03 08:02:32;;;;;;;40.05;9.18;;;;;;;;;;5051383;28;20376;-54
2022/01/03 08:04:58;;;;;;;21.92;7.43;;;;;;;;;;5049938;28;20074;-54
2022/01/03 08:07:23;;;;;;;38.83;9.30;;;;;;;;;;5051367;28;20009;-54
2022/01/03 08:09:48;;;;;;;35.38;9.45;;;;;;;;;;5049938;28;20032;-54
2022/01/03 08:12:13;;;;;;;25.42;6.93;;;;;;;;;;5051340;28;20105;-54
2022/01/03 08:14:39;;;;;;;31.30;7.97;;;;;;;;;;5049373;28;20029;-54
2022/01/03 08:17:05;;;;;;;29.40;7.63;;;;;;;;;;5051023;28;20021;-55
2022/01/03 08:19:30;;;;;;;24.42;8.23;;;;;;;;;;5051279;28;20431;-54
2022/01/03 08:21:55;;;;;;;24.40;7.13;;;;;;;;;;5049246;28;20403;-54
2022/01/03 08:24:21;;;;;;;31.42;8.38;;;;;;;;;;5051227;28;20422;-54
2022/01/03 08:26:46;;;;;;;19.73;8.02;;;;;;;;;;5040197;28;20572;-54
2022/01/03 08:29:11;;;;;;;41.95;10.55;;;;;;;;;;5038423;28;20041;-54
2022/01/03 08:31:39;;;;;;;31.25;10.02;;;;;;;;;;5050203;28;20032;-54
2022/01/03 08:34:04;;;;;;;29.07;6.33;;;;;;;;;;5048136;28;20423;-55
2022/01/03 08:36:29;;;;;;;27.77;9.07;;;;;;;;;;5050160;28;20437;-54
2022/01/03 08:38:55;;;;;;;33.40;8.43;;;;;;;;;;5049511;28;20017;-54
2022/01/03 08:41:20;;;;;;;34.37;7.87;;;;;;;;;;5050698;28;20111;-54
2022/01/03 08:43:45;;;;;;;35.63;9.27;;;;;;;;;;5047662;28;20451;-53
2022/01/03 08:46:10;;;;;;;32.43;9.40;;;;;;;;;;5050788;28;20032;-54
2022/01/03 08:48:35;;;;;;;23.13;7.05;;;;;;;;;;5050645;28;20459;-54
2022/01/03 08:51:00;;;;;;;29.25;7.45;;;;;;;;;;5049044;28;20048;-54
2022/01/03 08:53:27;;;;;;;26.90;7.75;;;;;;;;;;5050646;28;20051;-54
2022/01/03 08:55:53;;;;;;;26.55;8.85;;;;;;;;;;5051155;28;20041;-54
2022/01/03 08:58:18;;;;;;;35.78;8.30;;;;;;;;;;5054684;28;20017;-54
2022/01/03 09:00:44;;;;;;;21.83;7.53;;;;;;;;;;5052972;28;20373;-54
2022/01/03 09:03:09;;;;;;;36.72;7.68;;;;;;;;;;5054557;28;20025;-54
2022/01/03 09:05:35;;;;;;;15.07;7.47;;;;;;;;;;5052766;28;20044;-54
2022/01/03 09:08:00;;;;;;;36.13;10.43;;;;;;;;;;5054253;28;20503;-54
2022/01/03 09:10:26;;;;;;;30.13;9.17;;;;;;;;;;5053211;28;20032;-54
2022/01/03 09:12:51;;;;;;;27.40;8.83;;;;;;;;;;5054248;28;20062;-54
2022/01/03 09:15:16;;;;;;;26.70;7.67;;;;;;;;;;5053252;28;20509;-54
2022/01/03 09:17:41;;;;;;;23.45;9.43;;;;;;;;;;5053986;28;21107;-55
2022/01/03 09:20:07;;;;;;;25.30;6.28;;;;;;;;;;5052601;28;20037;-54
2022/01/03 09:22:37;;;;;;;18.67;6.10;;;;;;;;;;5054296;28;20029;-54
2022/01/03 09:30:12;;;;;;;24.13;6.13;;;;;;;;;;5052930;28;20094;-54
2022/01/03 09:32:37;;;;;;;22.42;8.35;;;;;;;;;;5053999;28;20376;-54
2022/01/03 09:35:03;;;;;;;30.43;7.47;;;;;;;;;;5052591;28;20051;-54
2022/01/03 09:37:28;;;;;;;21.75;7.05;;;;;;;;;;5054103;28;20439;-55
2022/01/03 09:39:54;;;;;;;26.77;9.13;;;;;;;;;;5052763;28;20028;-54
2022/01/03 09:42:25;;;;;;;28.13;7.47;;;;;;;;;;5053745;28;20067;-54
2022/01/03 09:44:50;;;;;;;25.90;8.25;;;;;;;;;;5052480;28;20029;-54
2022/01/03 09:47:17;;;;;;;25.83;6.50;;;;;;;;;;5054054;28;20020;-54
2022/01/03 09:49:43;;;;;;;21.40;9.93;;;;;;;;;;5051968;28;20096;-53
2022/01/03 09:52:09;;;;;;;36.92;9.98;;;;;;;;;;5054183;28;20102;-54
2022/01/03 09:54:35;;;;;;;18.30;6.78;;;;;;;;;;5053659;28;20020;-53
2022/01/03 09:57:01;;;;;;;21.45;6.38;;;;;;;;;;5051725;28;20166;-54
2022/01/03 09:59:27;;;;;;;21.23;7.15;;;;;;;;;;5054160;28;20063;-54
2022/01/03 10:01:53;;;;;;;25.77;6.78;;;;;;;;;;5052258;28;20033;-54
2022/01/03 10:04:18;;;;;;;25.35;6.13;;;;;;;;;;5053561;28;20021;-55
2022/01/03 10:06:44;;;;;;;21.50;7.03;;;;;;;;;;5050684;28;20033;-54
2022/01/03 10:09:09;;;;;;;39.78;8.30;;;;;;;;;;5053482;28;20017;-54
2022/01/03 10:11:35;;;;;;;23.30;7.32;;;;;;;;;;5051498;28;20033;-54
2022/01/03 10:14:00;;;;;;;15.95;5.97;;;;;;;;;;5053601;28;20032;-54
2022/01/03 10:16:25;;;;;;;27.92;7.32;;;;;;;;;;5051954;28;20033;-54
2022/01/03 10:18:51;;;;;;;22.75;8.38;;;;;;;;;;5052413;28;20053;-54
2022/01/03 10:21:51;;;;;;;11.80;5.30;;;;;;;;;;5051976;28;20041;-54
2022/01/03 10:24:18;;;;;;;14.40;5.38;;;;;;;;;;4972222;28;20454;-55
2022/01/03 10:26:51;;;;;;;24.13;8.73;;;;;;;;;;5034650;28;20103;-54
2022/01/03 10:29:17;;;;;;;32.58;10.57;;;;;;;;;;5053309;28;20074;-54
2022/01/03 10:31:44;;;;;;;16.65;5.40;;;;;;;;;;5051525;28;20040;-55
2022/01/03 10:34:11;;;;;;;31.92;7.97;;;;;;;;;;5052656;28;20480;-54
2022/01/03 10:36:37;;;;;;;18.23;6.22;;;;;;;;;;5051215;28;20033;-54
2022/01/03 10:39:18;;;;;;;17.58;5.95;;;;;;;;;;5053391;28;20028;-54
2022/01/03 10:41:44;;;;;;;17.38;5.30;;;;;;;;;;5050556;28;20033;-54
2022/01/03 10:44:09;;;;;;;25.80;8.07;;;;;;;;;;5053067;28;20024;-55
2022/01/03 10:46:36;;;;;;;22.60;6.65;;;;;;;;;;5051228;28;20075;-55
2022/01/03 10:49:08;;;;;;;21.98;9.30;;;;;;;;;;5052514;28;20354;-54
2022/01/03 10:51:34;;;;;;;22.13;8.30;;;;;;;;;;5047804;28;20039;-54
2022/01/03 10:53:59;;;;;;;29.30;10.07;;;;;;;;;;5051439;28;20021;-54
2022/01/03 10:56:29;;;;;;;24.48;8.23;;;;;;;;;;5050661;28;20099;-54
2022/01/03 10:58:56;;;;;;;22.48;5.93;;;;;;;;;;5052366;28;20383;-53
2022/01/03 11:01:22;;;;;;;41.17;9.70;;;;;;;;;;5051111;28;20037;-54
2022/01/03 11:03:47;;;;;;;15.63;5.50;;;;;;;;;;5051748;28;20020;-54
2022/01/03 11:07:01;;;;;;;21.52;6.75;;;;;;;;;;5051064;28;20488;-54
2022/01/03 11:11:44;;;;;;;26.70;8.65;;;;;;;;;;5050436;28;20036;-54
2022/01/03 11:14:28;;;;;;;33.85;7.57;;;;;;;;;;5052465;28;20020;-54
2022/01/03 11:16:53;;;;;;;20.40;6.90;;;;;;;;;;5050562;28;20044;-54
2022/01/03 11:19:33;;;;;;;28.20;8.48;;;;;;;;;;5051670;28;20045;-54
2022/01/03 11:21:58;;;;;;;22.25;8.00;;;;;;;;;;5054316;28;20056;-54
2022/01/03 11:24:24;;;;;;;20.00;7.45;;;;;;;;;;5051949;28;20056;-54
2022/01/03 11:26:51;;;;;;;25.85;9.68;;;;;;;;;;5067564;28;20058;-55
2022/01/03 11:29:16;;;;;;;22.00;8.00;;;;;;;;;;5070488;28;20029;-54
2022/01/03 11:31:42;;;;;;;16.93;5.70;;;;;;;;;;5071248;28;20078;-55
2022/01/03 11:34:07;;;;;;;24.98;7.97;;;;;;;;;;5068456;28;20531;-54
2022/01/03 11:36:34;;;;;;;33.53;9.85;;;;;;;;;;5071231;28;20027;-54
2022/01/03 11:39:08;;;;;;;23.17;8.98;;;;;;;;;;5070773;28;20020;-53
2022/01/03 11:41:34;;;;;;;22.38;7.40;;;;;;;;;;5071282;28;20056;-54
2022/01/03 11:43:59;;;;;;;32.75;8.80;;;;;;;;;;5070250;28;20065;-54
2022/01/03 11:46:25;;;;;;;28.77;7.68;;;;;;;;;;5071796;28;20421;-54
2022/01/03 11:48:51;;;;;;;24.33;7.72;;;;;;;;;;5069821;28;20025;-54
2022/01/03 11:51:16;;;;;;;28.52;7.47;;;;;;;;;;5071857;28;20017;-54
2022/01/03 11:53:43;;;;;;;44.05;9.73;;;;;;;;;;5071734;28;20020;-54
2022/01/03 11:56:12;;;;;;;20.58;6.18;;;;;;;;;;5069689;28;20036;-54
2022/01/03 11:59:07;;;;;;;18.10;5.65;;;;;;;;;;5071750;28;20383;-54
2022/01/03 12:04:22;;;;;;;22.13;7.57;;;;;;;;;;5069660;28;20039;-54
2022/01/03 12:06:47;;;;;;;26.58;7.57;;;;;;;;;;5071171;28;20020;-54
2022/01/03 12:09:16;;;;;;;23.30;7.10;;;;;;;;;;5070076;28;20024;-54
2022/01/03 12:11:43;;;;;;;22.17;8.10;;;;;;;;;;5070698;28;20414;-55
2022/01/03 12:14:10;;;;;;;22.42;8.85;;;;;;;;;;5069995;28;20119;-54
2022/01/03 12:16:40;;;;;;;28.73;7.82;;;;;;;;;;5071226;28;20062;-54
2022/01/03 12:19:07;;;;;;;26.90;9.63;;;;;;;;;;5069343;28;20116;-54
2022/01/03 12:21:51;;;;;;;21.80;7.65;;;;;;;;;;5071109;28;20622;-54
2022/01/03 12:24:28;;;;;;;38.70;12.05;;;;;;;;;;5069803;28;20040;-54
2022/01/03 12:27:12;;;;;;;21.15;6.18;;;;;;;;;;5031124;28;20048;-54
2022/01/03 12:29:52;;;;;;;33.80;8.15;;;;;;;;;;5029047;28;20423;-54
2022/01/03 12:32:18;;;;;;;19.80;7.20;;;;;;;;;;5031061;28;20634;-54
2022/01/03 12:34:43;;;;;;;34.90;8.05;;;;;;;;;;5029546;28;20033;-53
2022/01/03 12:37:14;;;;;;;28.27;6.40;;;;;;;;;;5031100;28;20017;-54
2022/01/03 12:39:58;;;;;;;22.15;6.78;;;;;;;;;;5029260;28;20100;-54
2022/01/03 12:42:42;;;;;;;32.05;7.72;;;;;;;;;;5037900;28;20687;-55
2022/01/03 12:45:07;;;;;;;23.58;7.72;;;;;;;;;;5049148;28;20127;-54
2022/01/03 12:47:36;;;;;;;43.13;8.07;;;;;;;;;;5049572;28;20131;-55
2022/01/03 12:50:18;;;;;;;21.00;7.00;;;;;;;;;;5049176;28;20029;-54
2022/01/03 12:52:43;;;;;;;27.27;9.07;;;;;;;;;;5050451;28;20020;-54
2022/01/03 12:55:08;;;;;;;24.52;6.78;;;;;;;;;;5049200;28;20124;-54
2022/01/03 12:57:34;;;;;;;30.52;8.13;;;;;;;;;;5050447;28;20053;-54
2022/01/03 12:59:59;;;;;;;26.20;9.05;;;;;;;;;;5049437;28;20522;-54
2022/01/03 13:02:30;;;;;;;21.45;7.00;;;;;;;;;;5050411;28;20016;-54
2022/01/03 13:04:55;;;;;;;25.35;8.50;;;;;;;;;;5049456;28;20112;-54
2022/01/03 13:07:21;;;;;;;23.95;6.93;;;;;;;;;;5051013;28;20017;-54
2022/01/03 13:09:46;;;;;;;24.42;6.90;;;;;;;;;;5048753;28;20371;-54
2022/01/03 13:12:12;;;;;;;20.58;7.10;;;;;;;;;;5050870;28;20017;-54
2022/01/03 13:14:37;;;;;;;28.67;10.10;;;;;;;;;;5049085;28;20120;-54
2022/01/03 13:17:02;;;;;;;36.33;11.15;;;;;;;;;;5050270;28;20021;-54
2022/01/03 13:19:35;;;;;;;29.52;8.30;;;;;;;;;;5048816;28;20051;-55
2022/01/03 13:22:02;;;;;;;29.75;8.48;;;;;;;;;;5050785;28;20029;-54
2022/01/03 13:24:32;;;;;;;18.85;6.78;;;;;;;;;;5048303;28;20139;-55
2022/01/03 13:27:07;;;;;;;24.63;6.78;;;;;;;;;;5050724;28;20117;-54
2022/01/03 13:29:37;;;;;;;19.25;5.93;;;;;;;;;;5049088;28;20025;-55
2022/01/03 13:32:05;;;;;;;27.73;8.80;;;;;;;;;;5050468;28;20029;-54
2022/01/03 13:34:30;;;;;;;29.55;7.05;;;;;;;;;;5049253;28;20060;-54
2022/01/03 13:36:59;;;;;;;35.73;8.77;;;;;;;;;;5050659;28;20036;-54
2022/01/03 13:39:25;;;;;;;18.42;5.90;;;;;;;;;;5048343;28;20373;-54
2022/01/03 13:41:50;;;;;;;30.88;9.57;;;;;;;;;;5047521;28;20162;-54
2022/01/03 13:44:26;;;;;;;22.77;7.35;;;;;;;;;;5052610;28;20033;-55
2022/01/03 13:49:41;;;;;;;27.63;7.10;;;;;;;;;;5050257;28;20120;-54
2022/01/03 13:52:06;;;;;;;23.55;6.63;;;;;;;;;;5053508;28;20099;-54
2022/01/03 13:54:33;;;;;;;15.43;5.07;;;;;;;;;;5051600;28;20048;-54
2022/01/03 13:57:00;;;;;;;19.33;6.90;;;;;;;;;;5053096;28;20468;-55
2022/01/03 13:59:26;;;;;;;27.48;7.60;;;;;;;;;;5052234;28;20060;-54
2022/01/03 14:01:52;;;;;;;8.30;4.70;;;;;;;;;;5052642;28;20021;-54
2022/01/03 14:04:17;;;;;;;22.98;6.53;;;;;;;;;;5052193;28;20033;-54
2022/01/03 14:06:43;;;;;;;24.63;6.38;;;;;;;;;;5053007;28;20018;-55
2022/01/03 14:09:09;;;;;;;19.88;7.20;;;;;;;;;;5051820;28;20064;-55
2022/01/03 14:11:34;;;;;;;20.98;5.93;;;;;;;;;;5053222;28;20028;-54
2022/01/03 14:14:12;;;;;;;16.83;6.03;;;;;;;;;;5051745;28;20025;-54
2022/01/03 14:16:54;;;;;;;16.10;4.72;;;;;;;;;;5050444;28;20163;-54
2022/01/03 14:19:19;;;;;;;20.80;7.03;;;;;;;;;;5051489;28;20045;-55
2022/01/03 14:21:46;;;;;;;15.43;7.88;;;;;;;;;;5052847;28;20166;-55
2022/01/03 14:24:11;;;;;;;20.85;6.93;;;;;;;;;;5051574;28;20120;-54
2022/01/03 14:26:36;;;;;;;23.47;6.37;;;;;;;;;;5052599;28;20128;-55
2022/01/03 14:29:02;;;;;;;29.08;5.50;;;;;;;;;;5051561;28;20443;-54
2022/01/03 14:31:40;;;;;;;17.33;6.07;;;;;;;;;;5048287;28;20021;-55
2022/01/03 14:34:05;;;;;;;14.10;4.75;;;;;;;;;;5051506;28;20068;-54
2022/01/03 14:36:36;;;;;;;14.20;6.35;;;;;;;;;;5052939;28;20053;-54
2022/01/03 14:39:01;;;;;;;21.95;6.05;;;;;;;;;;5051140;28;20166;-54
2022/01/03 14:41:27;;;;;;;23.52;6.75;;;;;;;;;;5052428;28;20108;-54
2022/01/03 14:43:56;;;;;;;20.58;6.30;;;;;;;;;;5051208;28;20526;-54
2022/01/03 14:46:29;;;;;;;23.10;7.40;;;;;;;;;;5052720;28;20021;-54
2022/01/03 14:48:54;;;;;;;25.77;7.93;;;;;;;;;;5051552;28;20400;-54